Time;durP1;ratioP1;P1;durP2;ratioP2;P2;SDS_P1;SDS_P2;PMS_P1;PMS_P2;Temp;Humidity;BMP_temperature;BMP_pressure;BME280_temperature;BME280_humidity;BME280_pressure;Samples;Min_cycle;Max_cycle;Signal;HPM_P1;HPM_P2
2023/09/17 00:00:32;;;;;;;11.25;6.43;;;;;;;21.71;58.17;95755.06;5031386;28;20037;-79
2023/09/17 00:02:58;;;;;;;7.38;5.90;;;;;;;21.66;58.12;95741.78;5031657;28;20033;-79
2023/09/17 00:05:24;;;;;;;9.23;6.35;;;;;;;21.60;58.18;95724.19;5032364;28;20037;-79
2023/09/17 00:07:49;;;;;;;8.63;5.90;;;;;;;21.61;57.67;95722.28;5033250;28;20036;-79
2023/09/17 00:10:15;;;;;;;11.38;5.15;;;;;;;21.60;57.19;95709.88;5033032;28;20116;-80
2023/09/17 00:12:40;;;;;;;7.80;5.85;;;;;;;21.60;58.11;95726.88;5033189;28;20116;-80
2023/09/17 00:15:07;;;;;;;11.65;5.75;;;;;;;21.46;57.86;95729.06;5031911;28;20030;-79
2023/09/17 00:17:33;;;;;;;7.88;5.10;;;;;;;21.20;58.21;95704.19;5032065;28;20080;-79
2023/09/17 00:19:58;;;;;;;12.40;5.25;;;;;;;21.09;58.16;95688.34;5032768;28;20484;-80
2023/09/17 00:22:24;;;;;;;7.68;5.25;;;;;;;21.27;57.33;95705.25;5031325;28;20040;-79
2023/09/17 00:24:50;;;;;;;9.18;5.50;;;;;;;21.48;57.56;95716.03;5032903;28;20033;-79
2023/09/17 00:27:15;;;;;;;9.57;5.63;;;;;;;21.52;57.30;95722.34;5032243;28;20036;-79
2023/09/17 00:29:41;;;;;;;8.13;5.15;;;;;;;21.43;57.48;95702.75;5032313;28;20034;-79
2023/09/17 00:32:06;;;;;;;9.15;5.03;;;;;;;21.22;57.47;95683.03;5033498;28;20434;-80
2023/09/17 00:34:32;;;;;;;8.50;5.43;;;;;;;21.60;56.85;95721.47;5033346;28;20040;-80
2023/09/17 00:37:00;;;;;;;7.68;5.22;;;;;;;21.66;56.50;95719.38;5033652;28;20025;-80
2023/09/17 00:39:26;;;;;;;10.60;5.13;;;;;;;21.51;56.55;95699.94;5032444;28;20041;-80
2023/09/17 00:41:52;;;;;;;9.68;5.28;;;;;;;21.33;56.94;95676.94;5034492;28;20373;-80
2023/09/17 00:44:18;;;;;;;7.53;5.15;;;;;;;21.12;56.67;95635.69;5032393;28;20083;-80
2023/09/17 00:46:43;;;;;;;9.40;5.40;;;;;;;21.37;56.99;95679.75;5031635;28;20466;-80
2023/09/17 00:49:13;;;;;;;8.32;5.50;;;;;;;21.41;56.81;95684.19;5031767;28;20036;-80
2023/09/17 00:51:42;;;;;;;8.65;4.85;;;;;;;21.43;57.18;95706.25;5033074;28;20124;-80
2023/09/17 00:54:10;;;;;;;9.50;5.32;;;;;;;21.26;57.48;95687.47;5031180;28;20032;-80
2023/09/17 00:56:36;;;;;;;10.63;5.55;;;;;;;21.20;57.75;95679.91;5064170;28;20029;-79
2023/09/17 00:59:03;;;;;;;10.75;6.07;;;;;;;21.37;58.01;95710.22;5031156;28;20451;-79
2023/09/17 01:01:29;;;;;;;10.70;6.40;;;;;;;21.09;58.08;95676.78;5032308;28;20034;-79
2023/09/17 01:03:55;;;;;;;15.10;6.80;;;;;;;21.09;58.69;95701.84;5030032;28;20037;-79
2023/09/17 01:06:21;;;;;;;9.95;6.85;;;;;;;20.49;58.59;95588.22;5032474;28;20068;-80
2023/09/17 01:08:48;;;;;;;9.95;6.13;;;;;;;21.28;58.26;95712.22;5032166;28;20061;-79
2023/09/17 01:11:14;;;;;;;13.02;7.28;;;;;;;21.25;58.56;95699.38;5032195;28;20104;-79
2023/09/17 01:13:42;;;;;;;12.55;8.32;;;;;;;21.24;59.33;95719.38;5030525;28;20124;-79
2023/09/17 01:16:09;;;;;;;13.50;8.52;;;;;;;21.21;59.38;95705.78;5031072;28;20033;-79
2023/09/17 01:18:35;;;;;;;14.85;9.65;;;;;;;21.09;59.71;95693.75;5030076;28;20029;-80
2023/09/17 01:21:26;;;;;;;13.88;9.85;;;;;;;21.06;60.52;95705.16;5030354;28;20210;-80
2023/09/17 01:24:40;;;;;;;17.10;10.25;;;;;;;20.95;60.97;95703.19;5032008;28;20046;-80
2023/09/17 01:27:06;;;;;;;16.60;10.30;;;;;;;20.82;61.06;95694.25;5045690;28;20034;-79
2023/09/17 01:29:35;;;;;;;20.70;12.00;;;;;;;20.72;61.56;95676.53;5031769;28;20484;-80
2023/09/17 01:32:00;;;;;;;16.13;11.13;;;;;;;20.85;61.44;95696.25;5031896;28;20041;-80
2023/09/17 01:34:27;;;;;;;15.68;11.40;;;;;;;21.02;61.34;95711.56;5029843;28;20063;-80
2023/09/17 01:36:57;;;;;;;18.90;11.85;;;;;;;20.56;61.47;95635.06;5029900;28;20041;-80
2023/09/17 01:39:27;;;;;;;18.77;12.30;;;;;;;20.38;61.97;95625.50;5031604;28;20029;-80
2023/09/17 01:41:53;;;;;;;21.13;12.80;;;;;;;20.97;61.82;95688.28;5029788;28;20041;-79
2023/09/17 01:44:20;;;;;;;18.33;12.68;;;;;;;21.13;62.03;95718.16;5031634;28;20064;-80
2023/09/17 01:46:46;;;;;;;16.23;13.15;;;;;;;20.62;62.30;95673.41;5031730;28;20034;-79
2023/09/17 01:49:12;;;;;;;16.52;13.38;;;;;;;20.95;62.47;95704.00;5030094;28;20033;-79
2023/09/17 01:51:39;;;;;;;21.75;15.00;;;;;;;20.85;62.63;95690.88;5063583;28;20044;-79
2023/09/17 01:54:05;;;;;;;22.13;14.05;;;;;;;21.06;62.05;95712.47;5030159;28;20124;-79
2023/09/17 01:56:34;;;;;;;19.52;14.77;;;;;;;20.99;62.41;95712.19;5063047;28;20033;-80
2023/09/17 01:59:00;;;;;;;20.13;13.82;;;;;;;21.00;62.30;95711.88;5029929;28;20105;-80
2023/09/17 02:01:25;;;;;;;21.98;15.57;;;;;;;20.26;63.23;95633.44;5030288;28;20052;-79
2023/09/17 02:03:51;;;;;;;25.52;15.57;;;;;;;20.80;62.77;95696.47;5030058;28;20033;-79
2023/09/17 02:06:16;;;;;;;27.20;16.40;;;;;;;20.77;63.29;95715.97;5031564;28;20171;-79
2023/09/17 02:08:42;;;;;;;20.70;15.07;;;;;;;20.71;63.55;95715.38;5029764;28;20053;-80
2023/09/17 02:11:07;;;;;;;22.25;15.18;;;;;;;20.57;63.53;95685.16;5029731;28;20064;-79
2023/09/17 02:13:33;;;;;;;20.70;16.10;;;;;;;20.57;63.66;95705.94;5029952;28;20037;-80
2023/09/17 02:15:58;;;;;;;22.58;15.25;;;;;;;20.55;63.10;95683.91;5029877;28;20029;-80
2023/09/17 02:18:24;;;;;;;22.45;15.48;;;;;;;20.73;62.80;95717.75;5029781;28;20040;-79
2023/09/17 02:20:49;;;;;;;23.63;15.15;;;;;;;20.67;62.92;95711.72;5029727;28;20423;-79
2023/09/17 02:23:15;;;;;;;23.48;15.90;;;;;;;20.70;63.10;95713.00;5031851;28;20109;-79
2023/09/17 02:25:40;;;;;;;25.73;16.13;;;;;;;20.69;64.59;95714.91;5034665;28;20120;-78
2023/09/17 02:28:06;;;;;;;25.08;16.52;;;;;;;20.71;65.37;95719.97;5038629;28;20037;-77
2023/09/17 02:30:31;;;;;;;22.70;16.10;;;;;;;20.18;66.44;95661.19;5037045;28;20041;-78
2023/09/17 02:32:56;;;;;;;24.92;15.90;;;;;;;20.84;66.91;95720.84;5039366;28;20041;-78
2023/09/17 02:35:22;;;;;;;26.33;16.20;;;;;;;20.68;66.15;95704.44;5039287;28;20040;-77
2023/09/17 02:37:48;;;;;;;27.17;17.15;;;;;;;20.64;66.97;95687.34;5040146;28;20385;-78
2023/09/17 02:40:13;;;;;;;19.42;15.38;;;;;;;20.71;66.83;95711.88;5043228;28;20120;-79
2023/09/17 02:42:39;;;;;;;30.23;16.95;;;;;;;20.66;68.03;95718.25;5043400;28;20462;-78
2023/09/17 02:45:08;;;;;;;26.83;16.48;;;;;;;20.70;68.98;95721.88;5042864;28;20519;-78
2023/09/17 02:47:34;;;;;;;25.15;17.20;;;;;;;20.58;67.84;95716.38;5041877;28;20029;-77
2023/09/17 02:50:00;;;;;;;29.98;16.73;;;;;;;20.49;68.88;95717.53;5042208;28;20063;-78
2023/09/17 02:52:26;;;;;;;23.23;17.20;;;;;;;20.33;68.53;95676.84;5043268;28;20029;-79
2023/09/17 02:54:54;;;;;;;22.10;17.35;;;;;;;20.56;68.23;95709.72;5040774;28;20105;-78
2023/09/17 02:57:19;;;;;;;23.58;16.27;;;;;;;20.36;67.18;95700.47;5041504;28;20034;-77
2023/09/17 02:59:45;;;;;;;21.90;15.50;;;;;;;20.44;67.66;95698.84;5043053;28;20099;-78
2023/09/17 03:02:10;;;;;;;24.52;16.40;;;;;;;20.17;67.48;95694.63;5042161;28;20231;-78
2023/09/17 03:04:36;;;;;;;25.27;16.02;;;;;;;20.25;66.98;95699.19;5043028;28;20045;-78
2023/09/17 03:07:04;;;;;;;24.60;15.35;;;;;;;20.27;67.04;95695.06;5040822;28;20034;-78
2023/09/17 03:09:29;;;;;;;30.52;16.45;;;;;;;20.38;66.15;95698.22;5041377;28;20526;-78
2023/09/17 03:11:55;;;;;;;23.20;15.57;;;;;;;20.18;66.26;95666.59;5040389;28;20034;-79
2023/09/17 03:14:20;;;;;;;25.67;15.57;;;;;;;20.27;66.09;95687.00;5041813;28;20136;-78
2023/09/17 03:16:46;;;;;;;22.48;14.38;;;;;;;20.38;65.49;95698.22;5043235;28;20064;-77
2023/09/17 03:19:12;;;;;;;24.73;15.10;;;;;;;20.27;65.51;95699.69;5043141;28;20060;-78
2023/09/17 03:21:40;;;;;;;27.05;14.15;;;;;;;20.15;65.05;95681.47;5041771;28;20029;-78
2023/09/17 03:24:06;;;;;;;22.25;14.95;;;;;;;20.24;65.46;95692.22;5042114;28;20089;-78
2023/09/17 03:26:32;;;;;;;29.05;15.10;;;;;;;20.16;65.13;95674.19;5043166;28;20022;-78
2023/09/17 03:28:57;;;;;;;21.67;14.63;;;;;;;20.00;64.57;95668.53;5041273;28;20026;-78
2023/09/17 03:31:24;;;;;;;25.48;14.52;;;;;;;20.19;64.85;95703.19;5042728;28;20108;-79
2023/09/17 03:33:49;;;;;;;21.65;14.85;;;;;;;20.24;64.51;95684.94;5040475;28;20034;-78
2023/09/17 03:36:15;;;;;;;20.08;13.13;;;;;;;19.91;64.98;95655.09;5037335;28;20087;-80
2023/09/17 03:38:40;;;;;;;22.10;13.80;;;;;;;20.12;64.42;95668.69;5032284;28;20041;-80
2023/09/17 03:41:05;;;;;;;25.15;13.07;;;;;;;20.31;64.50;95684.44;5032037;28;20040;-80
2023/09/17 03:43:31;;;;;;;27.88;13.93;;;;;;;20.24;64.92;95684.94;5032489;28;20044;-79
2023/09/17 03:45:57;;;;;;;19.67;12.77;;;;;;;20.26;64.80;95685.41;5032996;28;20057;-79
2023/09/17 03:48:22;;;;;;;26.25;13.68;;;;;;;20.34;64.87;95703.47;5032461;28;20072;-79
2023/09/17 03:50:49;;;;;;;20.77;12.98;;;;;;;20.06;64.91;95658.41;5031103;28;20113;-80
2023/09/17 03:53:15;;;;;;;25.83;13.15;;;;;;;19.81;65.03;95633.91;5032128;28;20056;-80
2023/09/17 03:55:40;;;;;;;21.17;12.55;;;;;;;20.26;64.96;95692.69;5033716;28;20038;-79
2023/09/17 03:58:08;;;;;;;23.33;13.45;;;;;;;20.19;65.12;95695.91;5033192;28;20563;-79
2023/09/17 04:00:34;;;;;;;25.98;13.48;;;;;;;20.18;65.40;95707.78;5031794;28;20037;-79
2023/09/17 04:03:00;;;;;;;22.83;13.55;;;;;;;20.10;64.67;95678.97;5033242;28;20037;-79
2023/09/17 04:05:26;;;;;;;21.27;13.15;;;;;;;20.22;64.50;95673.69;5033442;28;20443;-79
2023/09/17 04:07:51;;;;;;;20.45;12.57;;;;;;;20.57;64.33;95722.88;5033156;28;20093;-79
2023/09/17 04:10:17;;;;;;;19.80;12.80;;;;;;;20.48;64.47;95722.13;5032784;28;20156;-79
2023/09/17 04:12:44;;;;;;;24.55;13.95;;;;;;;20.43;64.50;95719.63;5031978;28;20048;-79
2023/09/17 04:15:20;;;;;;;21.50;12.90;;;;;;;20.50;64.13;95729.88;5032804;28;20507;-79
2023/09/17 04:17:47;;;;;;;25.80;14.02;;;;;;;20.30;64.43;95713.28;5031400;28;20099;-79
2023/09/17 04:20:14;;;;;;;22.63;13.60;;;;;;;20.36;64.70;95727.41;5033389;28;20504;-79
2023/09/17 04:22:42;;;;;;;23.10;14.35;;;;;;;20.31;64.98;95722.16;5031681;28;20037;-79
2023/09/17 04:25:09;;;;;;;32.95;15.02;;;;;;;20.44;64.94;95733.88;5033169;28;20029;-79
2023/09/17 04:27:40;;;;;;;21.52;13.75;;;;;;;20.36;64.77;95712.03;5032909;28;20033;-79
2023/09/17 04:30:06;;;;;;;30.70;15.93;;;;;;;20.49;64.85;95734.47;5031484;28;20057;-79
2023/09/17 04:32:42;;;;;;;19.35;14.07;;;;;;;20.51;64.71;95734.97;5031453;28;20853;-79
2023/09/17 04:35:09;;;;;;;27.40;17.13;;;;;;;20.30;64.30;95683.66;5032857;28;20464;-79
2023/09/17 04:37:35;;;;;;;28.17;16.13;;;;;;;20.18;64.35;95674.66;5031759;28;20043;-79
2023/09/17 04:40:04;;;;;;;29.88;16.30;;;;;;;20.11;64.45;95655.53;5031436;28;20080;-80
2023/09/17 04:42:31;;;;;;;31.58;17.05;;;;;;;20.44;64.43;95702.34;5032559;28;20041;-80
2023/09/17 04:44:57;;;;;;;27.70;16.45;;;;;;;20.40;64.62;95712.97;5031577;28;20392;-79
2023/09/17 04:47:22;;;;;;;24.65;15.27;;;;;;;20.44;65.21;95731.97;5039822;28;20044;-78
2023/09/17 04:49:48;;;;;;;39.58;15.82;;;;;;;20.18;65.82;95718.53;5073484;28;20120;-78
2023/09/17 04:52:13;;;;;;;25.88;15.02;;;;;;;20.28;65.60;95717.41;5041886;28;20492;-78
2023/09/17 04:54:38;;;;;;;28.52;16.40;;;;;;;20.55;65.58;95740.47;5072664;28;20097;-78
2023/09/17 04:57:04;;;;;;;25.95;15.50;;;;;;;20.45;66.13;95738.91;5073167;28;20030;-78
2023/09/17 04:59:30;;;;;;;26.27;15.50;;;;;;;20.53;65.72;95729.22;5041807;28;20087;-78
2023/09/17 05:01:56;;;;;;;28.67;16.55;;;;;;;20.26;65.83;95706.97;5039189;28;20022;-78
2023/09/17 05:04:24;;;;;;;22.70;15.32;;;;;;;20.59;65.72;95739.53;5072126;28;20041;-78
2023/09/17 05:06:49;;;;;;;28.67;14.73;;;;;;;20.49;65.70;95707.53;5040377;28;20036;-78
2023/09/17 05:09:15;;;;;;;29.08;15.20;;;;;;;20.66;65.52;95734.44;5039928;28;20025;-80
2023/09/17 05:11:40;;;;;;;26.67;14.30;;;;;;;20.37;65.70;95697.44;5073111;28;20551;-78
2023/09/17 05:14:06;;;;;;;27.20;15.85;;;;;;;20.74;65.39;95741.69;5039593;28;20033;-78
2023/09/17 05:16:31;;;;;;;22.38;14.18;;;;;;;20.63;65.49;95726.97;5037362;28;20033;-79
2023/09/17 05:18:57;;;;;;;21.13;13.30;;;;;;;20.66;66.05;95742.50;5040433;28;20094;-78
2023/09/17 05:21:22;;;;;;;23.05;14.15;;;;;;;20.61;65.94;95739.97;5071432;28;20503;-79
2023/09/17 05:23:48;;;;;;;21.40;14.15;;;;;;;20.53;66.37;95726.53;5071684;28;20033;-78
2023/09/17 05:26:13;;;;;;;19.75;13.98;;;;;;;20.49;66.38;95712.13;5038669;28;20037;-78
2023/09/17 05:28:38;;;;;;;22.52;14.65;;;;;;;20.53;66.21;95695.00;5038143;28;20056;-78
2023/09/17 05:31:04;;;;;;;25.05;15.88;;;;;;;20.88;65.61;95724.50;5039257;28;20470;-78
2023/09/17 05:33:30;;;;;;;24.10;14.18;;;;;;;21.01;65.94;95729.63;5039745;28;20375;-78
2023/09/17 05:35:56;;;;;;;29.60;15.48;;;;;;;20.90;66.31;95735.75;5038288;28;20106;-78
2023/09/17 05:38:23;;;;;;;28.42;15.52;;;;;;;20.51;66.84;95697.25;5038909;28;20064;-79
2023/09/17 05:40:49;;;;;;;26.05;14.93;;;;;;;20.83;66.78;95721.97;5071826;28;20244;-78
2023/09/17 05:43:15;;;;;;;24.88;15.88;;;;;;;20.92;66.50;95722.72;5038211;28;20069;-79
2023/09/17 05:45:41;;;;;;;37.67;16.58;;;;;;;21.02;66.82;95730.44;5039525;28;20029;-78
2023/09/17 05:48:06;;;;;;;24.40;16.08;;;;;;;20.96;66.73;95710.97;5039458;28;20064;-79
2023/09/17 05:50:31;;;;;;;22.67;16.42;;;;;;;21.20;66.31;95733.84;5041077;28;20044;-79
2023/09/17 05:52:57;;;;;;;31.73;17.23;;;;;;;21.13;66.21;95697.34;5039058;28;20055;-78
2023/09/17 05:55:22;;;;;;;29.20;17.83;;;;;;;20.96;65.74;95697.47;5039390;28;20116;-79
2023/09/17 05:57:48;;;;;;;25.05;18.42;;;;;;;21.00;67.05;95746.13;5038700;28;20045;-77
2023/09/17 06:00:14;;;;;;;35.85;19.98;;;;;;;21.20;66.52;95739.25;5040605;28;20041;-79
2023/09/17 06:02:39;;;;;;;30.65;18.83;;;;;;;21.16;66.39;95734.50;5040787;28;20037;-78
2023/09/17 06:05:05;;;;;;;31.23;21.15;;;;;;;21.35;66.40;95752.94;5039792;28;20242;-77
2023/09/17 06:07:30;;;;;;;27.05;18.30;;;;;;;21.10;65.75;95692.63;5040625;28;20025;-78
2023/09/17 06:09:56;;;;;;;36.38;23.00;;;;;;;21.51;65.43;95740.44;5040717;28;20166;-78
2023/09/17 06:12:21;;;;;;;42.63;22.33;;;;;;;21.52;65.71;95741.22;5040517;28;20045;-79
2023/09/17 06:14:47;;;;;;;36.35;22.08;;;;;;;21.55;65.21;95749.47;5040757;28;20037;-78
2023/09/17 06:17:13;;;;;;;39.83;22.65;;;;;;;21.44;65.27;95726.69;5041376;28;20034;-78
2023/09/17 06:19:38;;;;;;;31.67;21.98;;;;;;;21.56;65.02;95742.16;5075789;28;20512;-77
2023/09/17 06:22:03;;;;;;;35.10;22.95;;;;;;;21.64;65.20;95760.19;5040994;28;20029;-78
2023/09/17 06:24:29;;;;;;;43.63;23.13;;;;;;;21.44;65.82;95732.06;5044086;28;20029;-78
2023/09/17 06:26:55;;;;;;;36.92;20.95;;;;;;;21.71;65.26;95763.16;5041301;28;20155;-79
2023/09/17 06:29:21;;;;;;;32.10;21.05;;;;;;;21.81;64.77;95760.06;5040038;28;20025;-78
2023/09/17 06:31:47;;;;;;;35.25;21.15;;;;;;;21.82;64.57;95756.22;5043416;28;20030;-79
2023/09/17 06:34:12;;;;;;;38.00;20.10;;;;;;;21.91;64.23;95770.44;5045083;28;20037;-78
2023/09/17 06:36:38;;;;;;;33.45;19.75;;;;;;;21.82;64.35;95777.81;5039463;28;20030;-78
2023/09/17 06:39:05;;;;;;;32.65;20.10;;;;;;;21.14;65.28;95690.06;5040978;28;20089;-77
2023/09/17 06:41:31;;;;;;;32.55;20.10;;;;;;;21.59;65.28;95748.81;5041268;28;20492;-79
2023/09/17 06:43:57;;;;;;;32.40;20.02;;;;;;;21.46;65.09;95742.53;5040724;28;20034;-78
2023/09/17 06:46:24;;;;;;;30.58;19.98;;;;;;;21.53;64.83;95734.72;5040191;28;20041;-79
2023/09/17 06:48:50;;;;;;;36.42;21.05;;;;;;;21.68;65.36;95760.31;5074687;28;20048;-79
2023/09/17 06:51:15;;;;;;;31.92;20.67;;;;;;;21.90;64.90;95766.16;5040805;28;20476;-79
2023/09/17 06:53:41;;;;;;;35.05;21.80;;;;;;;21.60;64.33;95732.28;5042902;28;20164;-78
2023/09/17 06:56:08;;;;;;;33.40;20.85;;;;;;;21.61;65.05;95744.66;5040446;28;20033;-79
2023/09/17 06:58:34;;;;;;;34.63;21.27;;;;;;;21.89;64.28;95753.78;5042106;28;20025;-78
2023/09/17 07:01:00;;;;;;;29.65;20.52;;;;;;;21.64;64.37;95737.81;5040757;28;20034;-79
2023/09/17 07:03:25;;;;;;;35.05;20.98;;;;;;;21.64;63.44;95697.34;5073609;28;20076;-78
2023/09/17 07:05:51;;;;;;;33.28;20.98;;;;;;;22.22;63.47;95772.75;5039357;28;20117;-78
2023/09/17 07:08:16;;;;;;;33.25;20.88;;;;;;;21.79;62.75;95700.22;5042254;28;20033;-78
2023/09/17 07:10:43;;;;;;;28.70;19.52;;;;;;;22.45;62.56;95764.25;5041078;28;20069;-78
2023/09/17 07:13:09;;;;;;;34.80;19.83;;;;;;;22.31;62.21;95743.72;5040240;28;20034;-78
2023/09/17 07:15:35;;;;;;;33.08;18.30;;;;;;;22.11;62.64;95741.88;5039502;28;20057;-79
2023/09/17 07:18:00;;;;;;;37.53;19.98;;;;;;;22.22;62.26;95748.41;5040007;28;20030;-79
2023/09/17 07:20:26;;;;;;;32.55;20.05;;;;;;;22.37;62.01;95755.09;5041286;28;20037;-78
2023/09/17 07:22:51;;;;;;;33.05;22.25;;;;;;;22.40;62.11;95762.56;5039799;28;20037;-79
2023/09/17 07:25:16;;;;;;;34.28;21.67;;;;;;;21.79;61.87;95686.72;5039886;28;20034;-78
2023/09/17 07:27:42;;;;;;;38.33;23.35;;;;;;;22.23;62.83;95781.63;5040205;28;20517;-79
2023/09/17 07:30:08;;;;;;;38.47;24.67;;;;;;;22.09;62.65;95749.50;5039563;28;20052;-78
2023/09/17 07:32:33;;;;;;;41.25;24.15;;;;;;;22.42;62.36;95795.44;5056249;28;20025;-78
2023/09/17 07:35:02;;;;;;;42.00;23.85;;;;;;;22.20;62.33;95766.09;5041108;28;20041;-79
2023/09/17 07:37:28;;;;;;;36.17;23.98;;;;;;;22.36;62.59;95771.66;5038521;28;20343;-78
2023/09/17 07:39:56;;;;;;;32.83;21.75;;;;;;;22.38;62.74;95799.13;5039979;28;20531;-78
2023/09/17 07:42:22;;;;;;;35.33;24.33;;;;;;;22.49;62.43;95794.91;5037494;28;20037;-79
2023/09/17 07:44:48;;;;;;;34.15;23.02;;;;;;;22.32;62.53;95764.22;5038814;28;20053;-78
2023/09/17 07:47:14;;;;;;;39.28;24.60;;;;;;;22.72;61.84;95801.47;5039174;28;20040;-78
2023/09/17 07:49:39;;;;;;;39.03;25.40;;;;;;;22.88;61.08;95799.75;5039706;28;20029;-79
2023/09/17 07:52:05;;;;;;;41.05;25.60;;;;;;;22.94;60.68;95795.69;5037676;28;20026;-78
2023/09/17 07:54:39;;;;;;;38.42;25.27;;;;;;;22.77;60.28;95730.19;5040635;28;20033;-77
2023/09/17 07:57:04;;;;;;;37.53;24.38;;;;;;;23.27;59.38;95798.25;5038037;28;20124;-78
2023/09/17 07:59:30;;;;;;;39.42;25.15;;;;;;;23.44;59.15;95799.94;5037378;28;20579;-79
2023/09/17 08:01:58;;;;;;;36.45;23.95;;;;;;;23.35;58.40;95764.88;5038019;28;20059;-78
2023/09/17 08:04:23;;;;;;;39.10;24.50;;;;;;;22.64;58.98;95678.00;5037646;28;20043;-78
2023/09/17 08:06:49;;;;;;;45.72;25.88;;;;;;;23.24;58.91;95761.06;5070922;28;20116;-79
2023/09/17 08:09:16;;;;;;;39.05;25.85;;;;;;;23.33;59.00;95775.28;5037668;28;20041;-78
2023/09/17 08:11:42;;;;;;;38.10;24.38;;;;;;;23.47;58.39;95786.53;5038057;28;20131;-78
2023/09/17 08:14:08;;;;;;;37.38;25.77;;;;;;;23.47;57.61;95772.19;5036112;28;20036;-79
2023/09/17 08:16:35;;;;;;;37.30;24.90;;;;;;;23.58;58.24;95794.19;5036898;28;20033;-81
2023/09/17 08:19:00;;;;;;;50.38;27.88;;;;;;;23.65;57.14;95780.91;5033766;28;20026;-80
2023/09/17 08:21:27;;;;;;;37.30;25.85;;;;;;;23.66;57.47;95771.63;5032642;28;20542;-80
2023/09/17 08:23:52;;;;;;;36.60;26.83;;;;;;;23.89;57.36;95780.00;5031173;28;20029;-80
2023/09/17 08:26:18;;;;;;;41.08;25.38;;;;;;;23.94;56.65;95768.97;5030737;28;20113;-80
2023/09/17 08:28:43;;;;;;;34.10;23.25;;;;;;;24.21;55.69;95779.81;5064423;28;20120;-80
2023/09/17 08:31:09;;;;;;;36.33;24.08;;;;;;;24.20;55.88;95785.56;5064624;28;20096;-80
2023/09/17 08:33:35;;;;;;;37.78;24.98;;;;;;;24.40;55.46;95791.94;5032554;28;20095;-80
2023/09/17 08:36:02;;;;;;;39.00;24.30;;;;;;;24.49;54.70;95792.53;5032663;28;20136;-80
2023/09/17 08:38:29;;;;;;;37.40;24.80;;;;;;;24.48;54.65;95789.06;5032642;28;20524;-80
2023/09/17 08:40:57;;;;;;;34.40;23.63;;;;;;;24.04;54.64;95758.41;5031309;28;20037;-80
2023/09/17 08:43:23;;;;;;;33.38;23.48;;;;;;;24.29;54.97;95782.72;5031092;28;20125;-80
2023/09/17 08:45:50;;;;;;;43.67;24.23;;;;;;;24.31;54.60;95761.47;5031488;28;20034;-80
2023/09/17 08:48:17;;;;;;;40.70;24.80;;;;;;;24.41;54.79;95791.56;5032867;28;20547;-80
2023/09/17 08:50:48;;;;;;;37.55;22.90;;;;;;;24.27;54.77;95784.97;5032742;28;20041;-80
2023/09/17 08:53:18;;;;;;;34.28;22.55;;;;;;;24.22;54.22;95753.50;5032566;28;20037;-80
2023/09/17 08:55:47;;;;;;;37.38;23.60;;;;;;;24.44;54.26;95765.69;5031825;28;20034;-80
2023/09/17 08:58:15;;;;;;;37.05;22.10;;;;;;;24.35;53.65;95746.88;5031733;28;20090;-80
2023/09/17 09:00:49;;;;;;;39.92;23.60;;;;;;;24.75;53.88;95781.22;5030362;28;20044;-80
2023/09/17 09:03:17;;;;;;;35.45;21.73;;;;;;;24.90;53.42;95780.44;5030687;28;20042;-80
2023/09/17 09:05:44;;;;;;;31.80;21.33;;;;;;;24.84;53.21;95781.84;5031401;28;20030;-80
2023/09/17 09:08:12;;;;;;;32.03;22.75;;;;;;;24.88;52.87;95763.72;5030123;28;20025;-80
2023/09/17 09:10:38;;;;;;;31.40;22.40;;;;;;;24.97;53.05;95777.94;5030409;28;20526;-80
2023/09/17 09:13:04;;;;;;;35.97;22.23;;;;;;;24.83;52.46;95736.84;5031834;28;20037;-80
2023/09/17 09:15:30;;;;;;;31.77;22.88;;;;;;;24.95;52.35;95725.94;5032071;28;20183;-80
2023/09/17 09:17:55;;;;;;;36.10;22.10;;;;;;;25.02;52.30;95750.53;5030375;28;20499;-80
2023/09/17 09:20:21;;;;;;;31.52;22.35;;;;;;;25.34;51.96;95778.41;5030902;28;20134;-80
2023/09/17 09:22:47;;;;;;;30.55;21.27;;;;;;;25.37;52.04;95750.56;5031856;28;20412;-80
2023/09/17 09:25:16;;;;;;;30.30;21.08;;;;;;;25.49;51.16;95755.06;5031671;28;20033;-81
2023/09/17 09:27:42;;;;;;;31.98;20.73;;;;;;;25.55;50.69;95768.06;5068026;28;20045;-82
2023/09/17 09:30:09;;;;;;;28.30;18.63;;;;;;;25.26;50.37;95709.59;5037083;28;20030;-82
2023/09/17 09:32:38;;;;;;;36.55;22.35;;;;;;;25.75;50.15;95753.38;5036225;28;20091;-82
2023/09/17 09:35:05;;;;;;;34.50;23.45;;;;;;;25.95;50.65;95754.16;5037017;28;20087;-82
2023/09/17 09:37:31;;;;;;;30.88;21.17;;;;;;;25.52;49.71;95719.06;5035274;28;20397;-82
2023/09/17 09:39:58;;;;;;;29.08;19.42;;;;;;;25.70;49.53;95728.44;5036536;28;20040;-82
2023/09/17 09:42:26;;;;;;;29.40;20.55;;;;;;;25.67;50.17;95759.78;5039989;28;20036;-81
2023/09/17 09:44:52;;;;;;;29.15;19.65;;;;;;;25.51;49.60;95717.50;5037677;28;20590;-81
2023/09/17 09:47:20;;;;;;;34.03;21.67;;;;;;;25.45;49.89;95713.50;5071422;28;20124;-82
2023/09/17 09:49:45;;;;;;;28.38;19.33;;;;;;;25.70;49.33;95747.44;5036414;28;20052;-82
2023/09/17 09:52:12;;;;;;;33.72;21.98;;;;;;;25.68;49.86;95757.88;5068141;28;20033;-81
2023/09/17 09:54:40;;;;;;;30.33;20.58;;;;;;;25.58;50.15;95742.91;5034236;28;20038;-82
2023/09/17 09:57:05;;;;;;;39.63;20.42;;;;;;;25.99;49.10;95743.38;5037936;28;20039;-82
2023/09/17 09:59:35;;;;;;;30.98;22.02;;;;;;;26.04;48.11;95692.22;5035928;28;20116;-82
2023/09/17 10:02:04;;;;;;;40.40;23.23;;;;;;;26.46;48.08;95743.13;5035973;28;20034;-82
2023/09/17 10:04:30;;;;;;;33.70;21.15;;;;;;;27.08;47.16;95766.34;5034901;28;20053;-82
2023/09/17 10:06:56;;;;;;;30.83;20.17;;;;;;;27.49;45.12;95764.66;5036838;28;20022;-82
2023/09/17 10:09:25;;;;;;;37.13;21.55;;;;;;;28.16;44.09;95755.81;5040049;28;20048;-82
2023/09/17 10:11:53;;;;;;;31.13;19.80;;;;;;;28.57;43.23;95741.09;5038779;28;20492;-82
2023/09/17 10:14:20;;;;;;;31.52;21.17;;;;;;;29.13;42.44;95751.75;5071111;28;20114;-82
2023/09/17 10:16:48;;;;;;;27.23;18.65;;;;;;;29.75;40.29;95751.00;5039188;28;20041;-82
2023/09/17 10:19:18;;;;;;;24.38;18.38;;;;;;;30.08;39.47;95744.53;5039620;28;20037;-82
2023/09/17 10:21:46;;;;;;;26.90;19.08;;;;;;;29.84;39.83;95749.47;5037276;28;20076;-83
2023/09/17 10:24:13;;;;;;;24.33;18.52;;;;;;;29.42;40.02;95708.25;5035212;28;20466;-82
2023/09/17 10:26:42;;;;;;;26.73;19.55;;;;;;;28.84;40.85;95703.50;5037874;28;20067;-82
2023/09/17 10:29:10;;;;;;;32.72;20.27;;;;;;;29.04;41.38;95742.31;5036441;28;20423;-82
2023/09/17 10:31:37;;;;;;;34.75;22.23;;;;;;;28.89;41.65;95741.41;5035950;28;20037;-82
2023/09/17 10:34:04;;;;;;;29.40;21.17;;;;;;;28.53;42.29;95753.91;5037137;28;20418;-82
2023/09/17 10:36:32;;;;;;;29.40;19.20;;;;;;;28.09;43.10;95745.59;5032619;28;20044;-80
2023/09/17 10:39:03;;;;;;;28.45;18.17;;;;;;;27.45;43.73;95684.06;5031633;28;20034;-80
2023/09/17 10:41:31;;;;;;;27.40;19.77;;;;;;;27.68;43.92;95765.72;5031520;28;20029;-80
2023/09/17 10:43:58;;;;;;;32.55;20.92;;;;;;;27.10;45.05;95701.44;5029864;28;20041;-80
2023/09/17 10:46:27;;;;;;;30.33;21.05;;;;;;;26.97;45.22;95700.09;5030878;28;20029;-80
2023/09/17 10:48:54;;;;;;;25.25;19.55;;;;;;;27.09;45.60;95750.81;5029757;28;20025;-80
2023/09/17 10:51:20;;;;;;;29.23;21.52;;;;;;;26.96;45.76;95747.50;5031434;28;20369;-80
2023/09/17 10:53:45;;;;;;;31.08;20.63;;;;;;;26.62;45.63;95703.00;5029677;28;20025;-80
2023/09/17 10:56:13;;;;;;;29.33;21.05;;;;;;;26.67;45.65;95693.75;5029051;28;20026;-80
2023/09/17 10:58:48;;;;;;;33.13;22.63;;;;;;;26.60;46.40;95713.47;5030612;28;20456;-80
2023/09/17 11:01:16;;;;;;;28.42;20.90;;;;;;;26.78;46.82;95727.34;5030732;28;20032;-80
2023/09/17 11:03:49;;;;;;;27.35;19.92;;;;;;;26.46;46.30;95686.81;5034636;28;20040;-80
2023/09/17 11:06:23;;;;;;;29.08;20.50;;;;;;;26.40;46.20;95692.88;5034391;28;20025;-80
2023/09/17 11:08:51;;;;;;;30.23;20.67;;;;;;;26.29;46.86;95670.97;5033085;28;20033;-80
2023/09/17 11:11:17;;;;;;;27.88;19.85;;;;;;;26.55;46.16;95694.69;5032776;28;20054;-80
2023/09/17 11:13:46;;;;;;;30.05;20.98;;;;;;;26.59;46.65;95713.81;5032689;28;20029;-80
2023/09/17 11:16:14;;;;;;;32.13;20.52;;;;;;;26.83;46.22;95700.63;5033057;28;20053;-80